LiveATC.Net - Listen to live air traffic control over the Internet! Contact LiveATC.net for advertising information


ICAO: KDBQ  IATA: DBQ   Airport: Dubuque Regional Airport
City: Dubuque   State/Province: Iowa
Country: United States   Continent: North America
KDBQ METAR Weather: KDBQ 011653Z 15016KT 10SM FEW070 SCT100 BKN120 15/11 A2986
KDBQ Flight Activity (FlightAware)
KDBQ Airport Info   (AirNav) (iFlightPlanner)
KDBQ Gnd/Twr/ZAU
Feed Status: DOWN
Last heard on: 2014-09-24 19:26:03 (7 days 2 hours 54 minutes ago)
KDBQ Gnd/Twr/ZAU Audio Archives
FacilityFrequency
Dubuque Ground121.800
Dubuque Tower119.500
Emergency / GUARD121.500
UD Company121.950


NOTICE

Unauthorized use prohibited. See LiveATC.net Terms of Service


Find LiveATC Audio Streams


Airport/ARTCC Code

Frequency
(e.g., 124.400, 128.75)
Site-wide search

Browse LiveATC Feeds
LiveATC Coverage Map
Top 50 LiveATC Feeds
Bad Weather Areas

LiveATC FAQ
Offer a LiveATC Feed
Contact LiveATC.net
Press Inquiries

LiveATC on iPhone
LiveATC on Android

LiveATC Mobile
(Mobile browser)

ATC Audio Archives
Interesting Recordings

LiveATC Forums


Home Page
About LiveATC.net
Make a Donation
LiveATC Bookstore

Terms of Use
Privacy Policy

ATC/Radar Sites
U.S. ARTCC Freqs
Canadian Air Freqs

AIRMETs/SIGMETs

FAA Airport Status
Nat'l Airspace Status
Arrival Demand Charts


Server Software By:
Icecast.org
Liquidsoap

Please make a donation to help us keep growing!